Portland International Airport

Airport
ICAO code: 
KPDX
Summary
ICAO Region: 
NAM
Territory: 
Location: 
Portland, Oregon,
Coordinates: 
Aerial View: 
45° 35' 16.559" N, 122° 35' 46.756" W
Airport BS: 
Bird Strike
Metar
Observation
KPDX 040653Z 00000KT 10SM SCT200 03/01 A3011 RMK AO2 SLP197 T00330011
Station
Portland, Portland International Airport
Date/Time
2021-12-04 06:53:00
Wind direction
Wind speed
00 kts
Lowest cloud amount
scattered clouds
Temperature
3.3°C
Dew point
1.1°C
Humidity
85%
Weather condition
n/a

Description

Portland International Airport is located on the south side of the Columbia River within the current city limits of Portland in Multnomah County, six miles by air northeast of downtown Portland. Portland International Airport is often referred to by its IATA airport code, PDX.

Climatology

Oceanic/Dry-summer subtropical ”Mediterranean" climate (Köppen climate classification Csb) - characterized by warm, dry summers and mild winters.

Runways

Designator Length Width Surface Rops
3/21 2134 46 ASP Yes/Yes
10L/28R 2438 46 ASP Yes/Yes
10R/28L 3353 46 ASP Yes/Yes
Airport map: 
Aerial View: 

SKYbrary Partners:

Safety knowledge contributed by: